Time;durP1;ratioP1;P1;durP2;ratioP2;P2;SDS_P1;SDS_P2;PMS_P1;PMS_P2;Temp;Humidity;BMP_temperature;BMP_pressure;BME280_temperature;BME280_humidity;BME280_pressure;Samples;Min_cycle;Max_cycle;Signal;HPM_P1;HPM_P2
2022/03/11 00:00:42;;;;;;;16.40;11.80;;;3.20;99.90;;;;;;5175372;27;20747;-51
2022/03/11 00:03:12;;;;;;;15.30;11.07;;;3.20;99.90;;;;;;5179344;27;20297;-51
2022/03/11 00:05:41;;;;;;;19.73;11.80;;;3.10;99.90;;;;;;5180321;27;20707;-51
2022/03/11 00:08:10;;;;;;;18.67;12.17;;;3.10;99.90;;;;;;5180116;27;20222;-51
2022/03/11 00:10:38;;;;;;;17.80;12.23;;;3.10;99.90;;;;;;5180026;27;20598;-50
2022/03/11 00:13:06;;;;;;;16.83;11.90;;;3.00;99.90;;;;;;5178913;27;20242;-51
2022/03/11 00:15:35;;;;;;;18.50;11.73;;;3.00;99.90;;;;;;5180030;27;20267;-51
2022/03/11 00:18:04;;;;;;;16.70;12.17;;;2.90;99.90;;;;;;5178629;27;20209;-50
2022/03/11 00:20:32;;;;;;;17.17;11.73;;;2.80;99.90;;;;;;5175253;27;20251;-51
2022/03/11 00:23:00;;;;;;;17.97;12.33;;;2.80;99.90;;;;;;5174131;27;20209;-51
2022/03/11 00:25:30;;;;;;;17.53;12.40;;;2.70;99.90;;;;;;5175097;27;20630;-51
2022/03/11 00:28:00;;;;;;;15.93;11.80;;;2.70;99.90;;;;;;5174285;27;20210;-52
2022/03/11 00:30:28;;;;;;;16.83;11.83;;;2.70;99.90;;;;;;5174710;27;20198;-51
2022/03/11 00:32:57;;;;;;;17.67;12.03;;;2.70;99.90;;;;;;5173850;27;20561;-52
2022/03/11 00:35:25;;;;;;;20.23;12.70;;;2.70;99.90;;;;;;5173715;27;20229;-51
2022/03/11 00:37:54;;;;;;;19.43;13.17;;;2.60;99.90;;;;;;5174793;27;20264;-51
2022/03/11 00:40:22;;;;;;;18.67;12.03;;;2.60;99.90;;;;;;5174302;27;20279;-51
2022/03/11 00:42:50;;;;;;;21.70;12.87;;;2.50;99.90;;;;;;5173396;27;20206;-51
2022/03/11 00:45:18;;;;;;;19.47;12.43;;;2.50;99.90;;;;;;5154661;27;20271;-51
2022/03/11 00:47:46;;;;;;;15.50;11.83;;;2.50;99.90;;;;;;5153081;27;20206;-51
2022/03/11 00:50:16;;;;;;;17.70;12.43;;;2.40;99.90;;;;;;5153515;27;20207;-51
2022/03/11 00:52:44;;;;;;;17.67;12.03;;;2.40;99.90;;;;;;5152751;27;20213;-51
2022/03/11 00:55:12;;;;;;;21.37;13.67;;;2.30;99.90;;;;;;5153018;27;20321;-51
2022/03/11 00:57:41;;;;;;;18.23;12.77;;;2.30;99.90;;;;;;5158126;27;20204;-50
2022/03/11 01:00:10;;;;;;;19.90;13.03;;;2.30;99.90;;;;;;5173648;27;20211;-51
2022/03/11 01:02:39;;;;;;;17.20;12.00;;;2.30;99.90;;;;;;5172013;27;20189;-51
2022/03/11 01:05:09;;;;;;;20.03;13.40;;;2.20;99.90;;;;;;5172652;27;20223;-51
2022/03/11 01:07:39;;;;;;;20.40;12.73;;;2.20;99.90;;;;;;5173575;27;20645;-52
2022/03/11 01:10:08;;;;;;;20.93;13.80;;;2.30;99.90;;;;;;5174125;27;20229;-51
2022/03/11 01:12:37;;;;;;;20.67;13.23;;;2.30;99.90;;;;;;5172961;27;20212;-51
2022/03/11 01:15:08;;;;;;;19.83;13.13;;;2.30;99.90;;;;;;5173222;27;20281;-51
2022/03/11 01:17:36;;;;;;;19.17;12.70;;;2.30;99.90;;;;;;5174184;27;20197;-51
2022/03/11 01:20:05;;;;;;;21.43;13.37;;;2.30;99.90;;;;;;5172964;27;20550;-51
2022/03/11 01:22:34;;;;;;;18.23;13.67;;;2.20;99.90;;;;;;5173259;27;20260;-51
2022/03/11 01:25:04;;;;;;;20.03;13.27;;;2.30;99.90;;;;;;5173263;27;20225;-51
2022/03/11 01:27:32;;;;;;;19.97;12.63;;;2.20;99.90;;;;;;5160792;27;20687;-51
2022/03/11 01:30:01;;;;;;;19.93;13.80;;;2.10;99.90;;;;;;5152782;27;20724;-51
2022/03/11 01:32:29;;;;;;;21.87;13.60;;;2.20;99.90;;;;;;5152632;27;20202;-51
2022/03/11 01:34:57;;;;;;;18.97;13.27;;;2.10;99.90;;;;;;5152492;27;20616;-51
2022/03/11 01:37:25;;;;;;;18.03;13.10;;;2.10;99.90;;;;;;5151952;27;20290;-50
2022/03/11 01:39:53;;;;;;;20.63;12.90;;;2.10;99.90;;;;;;5152671;27;20210;-51
2022/03/11 01:42:23;;;;;;;20.37;13.60;;;2.10;99.90;;;;;;5152009;27;20255;-51
2022/03/11 01:44:52;;;;;;;19.67;14.17;;;2.10;99.90;;;;;;5152725;27;20222;-51
2022/03/11 01:47:21;;;;;;;23.03;13.30;;;2.10;99.90;;;;;;5152234;27;20204;-50
2022/03/11 01:49:49;;;;;;;19.93;14.10;;;2.10;99.90;;;;;;5152474;27;20223;-51
2022/03/11 01:52:18;;;;;;;25.57;14.37;;;2.10;99.90;;;;;;5151602;27;20206;-51
2022/03/11 01:54:46;;;;;;;20.33;14.30;;;2.10;99.90;;;;;;5152685;27;20282;-51
2022/03/11 01:57:14;;;;;;;21.60;14.27;;;2.10;99.90;;;;;;5162122;27;20221;-51
2022/03/11 01:59:44;;;;;;;21.23;13.70;;;2.10;99.90;;;;;;5173423;27;20205;-51
2022/03/11 02:02:13;;;;;;;21.73;13.83;;;2.00;99.90;;;;;;5172303;27;20213;-51
2022/03/11 02:04:41;;;;;;;19.90;13.30;;;2.00;99.90;;;;;;5172522;27;20221;-51
2022/03/11 02:07:10;;;;;;;20.87;13.80;;;2.00;99.90;;;;;;5173519;27;20269;-52
2022/03/11 02:09:39;;;;;;;19.97;12.93;;;1.90;99.90;;;;;;5155661;27;20200;-50
2022/03/11 02:12:08;;;;;;;21.97;13.93;;;1.90;99.90;;;;;;5155712;27;20205;-51
2022/03/11 02:14:36;;;;;;;23.77;14.07;;;1.80;99.90;;;;;;5156041;27;20225;-51
2022/03/11 02:17:05;;;;;;;24.47;14.43;;;1.80;99.90;;;;;;5156467;27;20229;-51
2022/03/11 02:19:34;;;;;;;22.73;15.30;;;1.70;99.90;;;;;;5156568;27;20264;-51
2022/03/11 02:22:04;;;;;;;22.83;14.90;;;1.70;99.90;;;;;;5176434;27;20260;-51
2022/03/11 02:24:34;;;;;;;23.13;14.90;;;1.70;99.90;;;;;;5176907;27;20224;-50
2022/03/11 02:27:02;;;;;;;22.50;15.17;;;1.70;99.90;;;;;;5176114;27;20674;-51
2022/03/11 02:29:31;;;;;;;22.63;15.83;;;1.70;99.90;;;;;;5177327;27;20208;-51
2022/03/11 02:31:59;;;;;;;22.43;15.00;;;1.80;99.90;;;;;;5176568;27;20213;-51
2022/03/11 02:34:27;;;;;;;21.77;15.20;;;1.70;99.90;;;;;;5176571;27;20216;-51
2022/03/11 02:36:55;;;;;;;23.80;15.87;;;1.70;99.90;;;;;;5176485;27;20299;-51
2022/03/11 02:39:23;;;;;;;25.70;15.37;;;1.70;99.90;;;;;;5176550;27;20242;-51
2022/03/11 02:41:53;;;;;;;25.57;15.90;;;1.70;99.90;;;;;;5176258;27;20214;-51
2022/03/11 02:44:22;;;;;;;25.93;16.00;;;1.70;99.90;;;;;;5176226;27;20206;-51
2022/03/11 02:46:51;;;;;;;24.00;15.73;;;1.70;99.90;;;;;;5176553;27;20204;-51
2022/03/11 02:49:19;;;;;;;25.63;16.37;;;1.70;99.90;;;;;;5176243;27;20200;-51
2022/03/11 02:51:47;;;;;;;23.87;15.27;;;1.70;99.90;;;;;;5176246;27;20200;-53
2022/03/11 02:54:15;;;;;;;27.60;17.17;;;1.70;99.90;;;;;;5175705;27;20225;-54
2022/03/11 02:56:43;;;;;;;24.37;15.80;;;1.60;99.90;;;;;;5176078;27;20224;-51
2022/03/11 02:59:12;;;;;;;24.53;15.77;;;1.60;99.90;;;;;;5175974;27;20673;-52
2022/03/11 03:01:40;;;;;;;26.80;16.93;;;1.50;99.90;;;;;;5176367;27;20201;-51
2022/03/11 03:04:11;;;;;;;26.33;16.60;;;1.50;99.90;;;;;;5174628;27;20750;-52
2022/03/11 03:06:39;;;;;;;26.30;17.20;;;1.50;99.90;;;;;;5175911;27;20256;-51
2022/03/11 03:09:07;;;;;;;25.47;16.70;;;1.50;99.90;;;;;;5176254;27;20249;-52
2022/03/11 03:11:36;;;;;;;23.60;16.20;;;1.50;99.90;;;;;;5175683;27;20255;-52
2022/03/11 03:14:04;;;;;;;25.63;16.90;;;1.50;99.90;;;;;;5175343;27;20249;-52
2022/03/11 03:16:33;;;;;;;24.40;15.87;;;1.50;99.90;;;;;;5175547;27;20284;-51
2022/03/11 03:19:02;;;;;;;24.30;15.73;;;1.50;99.90;;;;;;5175565;27;20692;-51
2022/03/11 03:21:30;;;;;;;25.73;16.07;;;1.40;99.90;;;;;;5157789;27;20209;-51
2022/03/11 03:23:58;;;;;;;25.63;16.60;;;1.40;99.90;;;;;;5154724;27;20226;-51
2022/03/11 03:26:26;;;;;;;23.87;16.30;;;1.30;99.90;;;;;;5154755;27;20226;-51
2022/03/11 03:28:54;;;;;;;26.57;16.97;;;1.30;99.90;;;;;;5154462;27;20262;-52
2022/03/11 03:31:22;;;;;;;28.73;17.13;;;1.30;99.90;;;;;;5154434;27;20204;-52
2022/03/11 03:33:52;;;;;;;25.27;16.53;;;1.20;99.90;;;;;;5154030;27;20204;-52
2022/03/11 03:36:20;;;;;;;26.97;16.37;;;1.20;99.90;;;;;;5154486;27;20229;-52
2022/03/11 03:38:48;;;;;;;26.47;16.97;;;1.20;99.90;;;;;;5154451;27;20685;-51
2022/03/11 03:41:16;;;;;;;28.03;17.10;;;1.20;99.90;;;;;;5154147;27;20261;-51
2022/03/11 03:43:44;;;;;;;28.03;17.77;;;1.20;99.90;;;;;;5152992;27;20274;-52
2022/03/11 03:46:13;;;;;;;30.87;17.77;;;1.20;99.90;;;;;;5153754;27;20223;-52
2022/03/11 03:48:41;;;;;;;26.80;18.13;;;1.20;99.90;;;;;;5154036;27;20254;-52
2022/03/11 03:51:10;;;;;;;23.83;16.37;;;1.20;99.90;;;;;;5153971;27;20729;-51
2022/03/11 03:53:38;;;;;;;29.27;19.00;;;1.20;99.90;;;;;;5154089;27;20304;-52
2022/03/11 03:56:06;;;;;;;30.27;17.17;;;1.10;99.90;;;;;;5153417;27;20276;-52
2022/03/11 03:58:34;;;;;;;28.73;18.20;;;1.10;99.90;;;;;;5166492;27;20226;-52
2022/03/11 04:01:03;;;;;;;29.03;18.97;;;1.10;99.90;;;;;;5174845;27;20729;-52
2022/03/11 04:03:31;;;;;;;29.53;18.23;;;1.10;99.90;;;;;;5172954;27;20208;-52
2022/03/11 04:05:59;;;;;;;28.73;18.10;;;1.10;99.90;;;;;;5174914;27;20713;-52
2022/03/11 04:08:30;;;;;;;31.13;18.83;;;1.10;99.90;;;;;;5174428;27;20196;-52
2022/03/11 04:10:58;;;;;;;30.03;19.27;;;1.10;99.90;;;;;;5174770;27;20204;-52
2022/03/11 04:13:26;;;;;;;28.80;18.57;;;1.10;99.90;;;;;;5174189;27;20206;-51
2022/03/11 04:15:54;;;;;;;30.83;18.70;;;1.10;99.90;;;;;;5174881;27;20221;-52
2022/03/11 04:18:22;;;;;;;28.33;17.70;;;1.10;99.90;;;;;;5174312;27;20315;-51
2022/03/11 04:20:50;;;;;;;28.47;18.70;;;1.00;99.90;;;;;;5174795;27;20221;-52
2022/03/11 04:23:18;;;;;;;32.27;19.57;;;1.00;99.90;;;;;;5173860;27;20254;-52
2022/03/11 04:25:48;;;;;;;32.17;19.50;;;0.90;99.90;;;;;;5174526;27;20250;-52
2022/03/11 04:28:16;;;;;;;28.90;18.50;;;0.90;99.90;;;;;;5174215;27;20207;-51
2022/03/11 04:30:44;;;;;;;31.83;18.83;;;0.80;99.90;;;;;;5174511;27;20203;-51
2022/03/11 04:33:12;;;;;;;31.83;18.93;;;0.80;99.90;;;;;;5172949;27;20727;-51
2022/03/11 04:35:40;;;;;;;31.20;19.53;;;0.80;99.90;;;;;;5173974;27;20640;-51
2022/03/11 04:38:09;;;;;;;34.07;20.87;;;0.70;99.90;;;;;;5174278;27;20221;-51
2022/03/11 04:40:37;;;;;;;33.30;20.97;;;0.70;99.90;;;;;;5174321;27;20235;-52
2022/03/11 04:43:06;;;;;;;37.73;21.80;;;0.70;99.90;;;;;;5173832;27;20259;-51
2022/03/11 04:45:34;;;;;;;38.33;23.13;;;0.70;99.90;;;;;;5174416;27;20268;-51
2022/03/11 04:48:03;;;;;;;33.43;21.83;;;0.60;99.90;;;;;;5173931;27;20624;-51
2022/03/11 04:50:32;;;;;;;33.17;21.50;;;0.60;99.90;;;;;;5174265;27;20207;-51
2022/03/11 04:53:00;;;;;;;34.13;21.03;;;0.60;99.90;;;;;;5173540;27;20198;-51
2022/03/11 04:55:28;;;;;;;35.53;21.53;;;0.60;99.90;;;;;;5173965;27;20256;-51
2022/03/11 04:57:56;;;;;;;32.47;20.13;;;0.60;99.90;;;;;;5173713;27;20261;-51
2022/03/11 05:00:26;;;;;;;35.50;20.03;;;0.50;99.90;;;;;;5173972;27;20203;-51
2022/03/11 05:02:54;;;;;;;31.47;20.20;;;0.50;99.90;;;;;;5173123;27;20256;-52
2022/03/11 05:05:23;;;;;;;35.00;20.20;;;0.40;99.90;;;;;;5173660;27;20278;-51
2022/03/11 05:07:51;;;;;;;34.70;21.10;;;0.40;99.90;;;;;;5171412;27;20197;-52
2022/03/11 05:10:19;;;;;;;33.97;20.07;;;0.40;99.90;;;;;;5152598;27;20203;-51
2022/03/11 05:12:47;;;;;;;33.80;20.47;;;0.40;99.90;;;;;;5152586;27;20205;-51
2022/03/11 05:15:15;;;;;;;32.83;20.93;;;0.40;99.90;;;;;;5152300;27;20229;-51
2022/03/11 05:17:45;;;;;;;32.17;20.43;;;0.30;99.90;;;;;;5152824;27;20301;-51
2022/03/11 05:20:13;;;;;;;35.60;21.23;;;0.30;99.90;;;;;;5158922;27;20192;-51
2022/03/11 05:22:42;;;;;;;35.90;20.83;;;0.30;99.90;;;;;;5172918;27;20249;-51
2022/03/11 05:25:11;;;;;;;38.33;22.33;;;0.30;99.90;;;;;;5173891;27;20592;-51
2022/03/11 05:27:39;;;;;;;37.17;21.87;;;0.30;99.90;;;;;;5172938;27;20214;-51
2022/03/11 05:30:09;;;;;;;33.20;19.83;;;0.40;99.90;;;;;;5173841;27;20232;-51
2022/03/11 05:32:41;;;;;;;37.67;21.93;;;0.40;99.90;;;;;;5173124;27;20253;-51
2022/03/11 05:35:11;;;;;;;35.63;21.43;;;0.40;99.90;;;;;;5173467;27;20226;-50
2022/03/11 05:37:39;;;;;;;32.77;20.70;;;0.40;99.90;;;;;;5173078;27;20215;-51
2022/03/11 05:40:09;;;;;;;33.60;20.40;;;0.40;99.90;;;;;;5173807;27;20259;-51
2022/03/11 05:42:37;;;;;;;34.93;21.80;;;0.50;99.90;;;;;;5172825;27;20226;-52
2022/03/11 05:45:07;;;;;;;35.20;20.67;;;0.50;99.90;;;;;;5176217;27;20226;-51
2022/03/11 05:47:35;;;;;;;34.87;21.27;;;0.50;99.90;;;;;;5177472;27;20203;-51
2022/03/11 05:50:04;;;;;;;37.43;21.87;;;0.50;99.90;;;;;;5177078;27;20251;-51
2022/03/11 05:52:36;;;;;;;35.30;21.63;;;0.60;99.90;;;;;;5177420;27;20611;-51
2022/03/11 05:55:05;;;;;;;34.83;20.60;;;0.60;99.90;;;;;;5177386;27;20255;-51
2022/03/11 05:57:34;;;;;;;32.33;20.60;;;0.60;99.90;;;;;;5176822;27;20199;-51
2022/03/11 06:00:03;;;;;;;31.20;20.20;;;0.60;99.90;;;;;;5177706;27;20207;-51
2022/03/11 06:02:31;;;;;;;31.10;19.50;;;0.60;99.90;;;;;;5175504;27;20229;-51
2022/03/11 06:04:59;;;;;;;31.63;20.00;;;0.70;99.90;;;;;;5177254;27;20229;-51
2022/03/11 06:07:28;;;;;;;32.97;20.60;;;0.80;99.90;;;;;;5177153;27;20723;-51
2022/03/11 06:09:57;;;;;;;30.43;18.93;;;0.90;99.90;;;;;;5156799;27;20197;-51
2022/03/11 06:12:26;;;;;;;36.57;22.87;;;0.90;99.90;;;;;;5155401;27;20258;-51
2022/03/11 06:14:54;;;;;;;32.80;22.00;;;1.00;99.90;;;;;;5156215;27;20714;-51
2022/03/11 06:17:22;;;;;;;33.20;21.90;;;1.00;99.90;;;;;;5156050;27;20208;-51
2022/03/11 06:19:50;;;;;;;32.40;20.60;;;0.90;99.90;;;;;;5154406;27;20232;-52
2022/03/11 06:22:18;;;;;;;36.67;22.40;;;0.90;99.90;;;;;;5165335;27;20260;-51
2022/03/11 06:24:46;;;;;;;33.93;21.10;;;0.80;99.90;;;;;;5176326;27;20253;-51
2022/03/11 06:27:16;;;;;;;35.57;21.90;;;0.70;99.90;;;;;;5171382;27;20210;-52
2022/03/11 06:29:44;;;;;;;35.40;21.70;;;0.60;99.90;;;;;;5159493;27;20245;-52
2022/03/11 06:32:12;;;;;;;34.90;21.23;;;0.60;99.90;;;;;;5155570;27;20206;-52
2022/03/11 06:34:40;;;;;;;31.07;19.87;;;0.70;99.90;;;;;;5155111;27;20306;-51
2022/03/11 06:37:08;;;;;;;32.27;20.60;;;0.80;99.90;;;;;;5155671;27;20263;-51
2022/03/11 06:39:36;;;;;;;30.03;19.90;;;1.00;99.90;;;;;;5155207;27;20226;-51
2022/03/11 06:42:05;;;;;;;31.07;19.77;;;1.10;99.90;;;;;;5153224;27;20220;-51
2022/03/11 06:44:34;;;;;;;34.17;19.40;;;1.40;99.90;;;;;;5155403;27;20285;-51
2022/03/11 06:47:03;;;;;;;30.90;20.10;;;1.70;99.90;;;;;;5155465;27;20265;-51
2022/03/11 06:49:31;;;;;;;28.27;17.87;;;1.90;99.90;;;;;;5154565;27;20262;-51
2022/03/11 06:51:59;;;;;;;27.87;17.97;;;2.10;99.90;;;;;;5154571;27;20235;-51
2022/03/11 06:54:27;;;;;;;27.27;18.30;;;2.40;99.90;;;;;;5155537;27;20236;-52
2022/03/11 06:56:56;;;;;;;27.23;18.37;;;2.80;99.90;;;;;;5160650;27;20204;-51
2022/03/11 06:59:24;;;;;;;25.97;18.43;;;3.20;99.90;;;;;;5175362;27;20269;-52
2022/03/11 07:01:53;;;;;;;27.03;18.87;;;3.50;99.90;;;;;;5175881;27;20207;-52
2022/03/11 07:04:21;;;;;;;26.67;18.80;;;3.70;99.90;;;;;;5175428;27;20256;-52
2022/03/11 07:06:49;;;;;;;27.90;19.20;;;3.90;99.90;;;;;;5176289;27;20234;-52
2022/03/11 07:09:17;;;;;;;22.93;16.87;;;4.10;99.90;;;;;;5175748;27;20669;-52
2022/03/11 07:11:46;;;;;;;24.07;16.77;;;4.10;99.90;;;;;;5175011;27;20673;-51
2022/03/11 07:14:14;;;;;;;25.37;17.90;;;4.10;99.70;;;;;;5176088;27;20203;-51
2022/03/11 07:16:43;;;;;;;21.70;15.97;;;4.30;99.90;;;;;;5175002;27;20247;-52
2022/03/11 07:19:12;;;;;;;22.17;16.17;;;4.50;98.90;;;;;;5175415;27;20700;-51
2022/03/11 07:21:40;;;;;;;23.27;16.33;;;4.50;98.80;;;;;;5175515;27;20272;-52
2022/03/11 07:24:09;;;;;;;24.87;16.57;;;4.70;98.70;;;;;;5175492;27;20754;-51
2022/03/11 07:26:37;;;;;;;19.77;15.53;;;4.80;98.60;;;;;;5175200;27;20254;-52
2022/03/11 07:29:05;;;;;;;20.33;15.40;;;4.90;96.50;;;;;;5175269;27;20254;-51
2022/03/11 07:31:33;;;;;;;19.23;14.07;;;5.10;97.70;;;;;;5175957;27;20208;-52
2022/03/11 07:34:02;;;;;;;19.13;14.40;;;5.40;97.70;;;;;;5174725;27;20206;-52
2022/03/11 07:36:34;;;;;;;19.20;13.80;;;5.60;95.90;;;;;;5175581;27;20225;-51
2022/03/11 07:39:02;;;;;;;18.13;14.17;;;5.90;95.50;;;;;;5174159;27;20221;-52
2022/03/11 07:41:31;;;;;;;17.30;13.70;;;5.90;94.10;;;;;;5159544;27;20635;-51
2022/03/11 07:44:00;;;;;;;18.43;13.20;;;6.00;93.90;;;;;;5170999;27;20230;-51
2022/03/11 07:46:42;;;;;;;17.03;12.60;;;6.10;93.20;;;;;;5175030;27;20190;-51
2022/03/11 07:49:10;;;;;;;16.67;12.60;;;6.40;92.90;;;;;;5174478;27;20258;-52
2022/03/11 07:51:40;;;;;;;15.88;13.98;;;6.60;92.30;;;;;;5174194;27;20429;-51
2022/03/11 07:54:08;;;;;;;15.77;12.97;;;6.90;90.60;;;;;;5174878;27;20941;-51
2022/03/11 07:56:36;;;;;;;16.30;12.40;;;6.80;91.60;;;;;;5174634;27;20630;-51
2022/03/11 07:59:06;;;;;;;18.87;12.97;;;6.60;90.60;;;;;;5175035;27;20217;-51
2022/03/11 08:01:35;;;;;;;16.37;12.70;;;6.50;90.20;;;;;;5174851;27;20200;-51
2022/03/11 08:04:05;;;;;;;16.20;12.33;;;6.50;90.20;;;;;;5174247;27;20292;-51
2022/03/11 08:06:33;;;;;;;18.40;12.47;;;6.30;90.70;;;;;;5174645;27;20221;-51
2022/03/11 08:09:03;;;;;;;16.77;12.73;;;6.10;90.70;;;;;;5173509;27;20189;-51
2022/03/11 08:11:31;;;;;;;16.80;12.07;;;5.90;90.90;;;;;;5174845;27;20233;-51
2022/03/11 08:13:59;;;;;;;15.80;11.63;;;5.80;91.00;;;;;;5174145;27;20205;-51
2022/03/11 08:16:27;;;;;;;13.97;11.37;;;5.70;89.70;;;;;;5174978;27;20279;-51
2022/03/11 08:18:57;;;;;;;16.77;11.30;;;5.80;89.60;;;;;;5174229;27;20245;-52
2022/03/11 08:21:25;;;;;;;17.60;12.27;;;5.80;89.90;;;;;;5174374;27;20254;-51
2022/03/11 08:23:53;;;;;;;15.53;11.47;;;5.70;89.90;;;;;;5174100;27;20209;-51
2022/03/11 08:26:23;;;;;;;17.97;12.00;;;5.70;88.70;;;;;;5174630;27;20270;-51
2022/03/11 08:28:51;;;;;;;16.40;11.47;;;5.70;89.40;;;;;;5174483;27;20210;-51
2022/03/11 08:31:39;;;;;;;17.63;10.97;;;5.90;89.80;;;;;;5165516;27;20230;-51
2022/03/11 08:34:09;;;;;;;16.53;11.93;;;6.00;87.40;;;;;;5171251;27;20324;-51
2022/03/11 08:36:39;;;;;;;16.63;11.97;;;5.90;86.50;;;;;;5174154;27;20210;-51
2022/03/11 08:39:09;;;;;;;15.40;11.40;;;5.90;85.00;;;;;;5174561;27;20208;-51
2022/03/11 08:41:38;;;;;;;15.93;10.90;;;5.80;86.40;;;;;;5173884;27;20203;-51
2022/03/11 08:44:07;;;;;;;16.77;13.00;;;5.80;85.70;;;;;;5174357;27;20228;-51
2022/03/11 08:46:37;;;;;;;31.37;23.07;;;5.80;87.60;;;;;;5172980;27;20280;-52
2022/03/11 08:49:07;;;;;;;17.23;12.63;;;5.80;87.00;;;;;;5155628;27;20212;-51
2022/03/11 08:51:36;;;;;;;16.87;12.33;;;5.90;89.00;;;;;;5172435;27;20662;-51
2022/03/11 08:54:04;;;;;;;14.83;11.50;;;5.90;86.30;;;;;;5173620;27;20212;-51
2022/03/11 08:56:33;;;;;;;16.93;11.73;;;6.00;86.70;;;;;;5174057;27;20344;-51
2022/03/11 08:59:02;;;;;;;15.00;11.57;;;5.90;86.80;;;;;;5172748;27;20259;-52
2022/03/11 09:01:30;;;;;;;13.63;10.53;;;6.00;86.10;;;;;;5173618;27;20223;-51
2022/03/11 09:03:59;;;;;;;15.03;11.17;;;6.00;84.30;;;;;;5172895;27;20206;-51
2022/03/11 09:06:27;;;;;;;15.50;11.00;;;6.00;84.30;;;;;;5173903;27;20226;-51
2022/03/11 09:08:55;;;;;;;14.10;10.20;;;6.10;86.70;;;;;;5161966;27;20622;-51
2022/03/11 09:11:24;;;;;;;15.37;11.87;;;6.10;87.30;;;;;;5152123;27;20202;-51
2022/03/11 09:13:52;;;;;;;15.07;10.37;;;6.20;87.40;;;;;;5152210;27;20292;-51
2022/03/11 09:16:21;;;;;;;16.30;10.23;;;6.20;87.40;;;;;;5152259;27;20270;-51
2022/03/11 09:18:50;;;;;;;15.90;8.80;;;6.40;84.30;;;;;;5152097;27;20225;-51
2022/03/11 09:21:18;;;;;;;14.23;11.33;;;6.50;83.60;;;;;;5152569;27;20224;-51
2022/03/11 09:23:47;;;;;;;14.60;10.93;;;6.40;84.50;;;;;;5156850;27;20259;-51
2022/03/11 09:26:16;;;;;;;12.57;9.30;;;6.40;85.40;;;;;;5173777;27;20244;-51
2022/03/11 09:28:44;;;;;;;14.60;10.73;;;6.50;84.90;;;;;;5172887;27;20261;-51
2022/03/11 09:31:14;;;;;;;14.27;10.47;;;6.50;84.50;;;;;;5162351;27;20250;-51
2022/03/11 09:33:44;;;;;;;14.73;10.70;;;6.50;84.90;;;;;;5165772;27;20216;-51
2022/03/11 09:36:12;;;;;;;13.60;10.10;;;6.50;83.20;;;;;;5162750;27;20218;-52
2022/03/11 09:38:41;;;;;;;15.23;11.13;;;6.60;83.00;;;;;;5162236;27;20638;-52
2022/03/11 09:41:10;;;;;;;18.43;11.00;;;6.60;85.90;;;;;;5173365;27;20221;-52
2022/03/11 09:43:39;;;;;;;14.80;10.03;;;6.60;84.10;;;;;;5172142;27;20469;-51
2022/03/11 09:46:09;;;;;;;15.43;10.37;;;6.70;84.60;;;;;;5152290;27;20270;-51
2022/03/11 09:48:38;;;;;;;16.57;10.63;;;6.70;86.20;;;;;;5152207;27;20206;-51
2022/03/11 09:51:09;;;;;;;15.30;10.77;;;6.80;84.50;;;;;;5151541;27;20224;-51
2022/03/11 09:53:42;;;;;;;14.33;10.40;;;6.90;85.60;;;;;;5151864;27;20195;-51
2022/03/11 09:56:10;;;;;;;13.77;10.40;;;6.90;84.80;;;;;;5152037;27;20275;-51
2022/03/11 09:58:38;;;;;;;15.00;10.60;;;6.90;86.30;;;;;;5165518;27;20690;-52
2022/03/11 10:01:06;;;;;;;15.43;10.13;;;6.90;86.50;;;;;;5173330;27;20230;-52
2022/03/11 10:03:35;;;;;;;17.10;10.53;;;7.00;86.70;;;;;;5171994;27;20202;-52
2022/03/11 10:06:03;;;;;;;11.90;9.80;;;7.10;85.60;;;;;;5173229;27;20280;-52
2022/03/11 10:08:35;;;;;;;12.07;10.43;;;7.10;84.20;;;;;;5172802;27;20325;-52
2022/03/11 10:11:18;;;;;;;14.73;10.23;;;7.10;84.60;;;;;;5172971;27;20746;-52
2022/03/11 10:13:47;;;;;;;15.47;10.33;;;7.20;83.50;;;;;;5171717;27;20723;-51
2022/03/11 10:16:23;;;;;;;17.43;10.23;;;7.30;82.50;;;;;;5172904;27;20894;-51
2022/03/11 10:18:58;;;;;;;13.57;10.47;;;7.20;82.90;;;;;;5172663;27;20208;-51
2022/03/11 10:21:34;;;;;;;12.27;9.00;;;7.20;83.00;;;;;;5173069;27;20217;-51
2022/03/11 10:24:06;;;;;;;14.00;9.60;;;7.30;82.20;;;;;;5172372;27;20281;-51
2022/03/11 10:26:37;;;;;;;14.27;10.00;;;7.30;83.70;;;;;;5172062;27;20851;-51
2022/03/11 10:29:11;;;;;;;13.83;10.23;;;7.40;82.30;;;;;;5172648;27;20228;-51
2022/03/11 10:31:42;;;;;;;12.63;9.80;;;7.50;82.80;;;;;;5174564;27;20188;-52
2022/03/11 10:34:19;;;;;;;14.37;10.37;;;7.50;82.20;;;;;;5176417;27;20677;-51
2022/03/11 10:36:50;;;;;;;13.43;9.97;;;7.60;84.30;;;;;;5155246;27;20635;-51
2022/03/11 10:39:22;;;;;;;14.00;9.50;;;7.60;84.10;;;;;;5155671;27;20252;-51
2022/03/11 10:41:53;;;;;;;11.97;9.33;;;7.70;82.80;;;;;;5151931;27;20251;-51
2022/03/11 10:44:23;;;;;;;12.17;9.03;;;7.80;81.80;;;;;;5169147;27;20210;-51
2022/03/11 10:46:51;;;;;;;13.23;9.70;;;7.90;82.20;;;;;;5176333;27;20185;-50
2022/03/11 10:49:27;;;;;;;12.07;9.37;;;7.90;83.20;;;;;;5175338;27;20678;-51
2022/03/11 10:51:56;;;;;;;13.13;9.63;;;8.00;81.40;;;;;;5176265;27;20197;-51
2022/03/11 10:54:29;;;;;;;11.73;9.17;;;8.00;84.20;;;;;;5175997;27;20654;-51
2022/03/11 10:57:11;;;;;;;13.40;9.60;;;8.00;83.60;;;;;;5166478;27;20254;-52
2022/03/11 10:59:39;;;;;;;13.07;9.20;;;8.10;84.60;;;;;;5174068;27;20709;-51
2022/03/11 11:02:09;;;;;;;10.73;9.20;;;8.10;81.90;;;;;;5176050;27;20225;-52
2022/03/11 11:04:39;;;;;;;13.13;9.77;;;8.20;83.20;;;;;;5175830;27;20317;-51
2022/03/11 11:07:08;;;;;;;14.20;9.17;;;8.30;83.40;;;;;;5175808;27;20246;-51
2022/03/11 11:09:38;;;;;;;10.87;8.40;;;8.40;83.80;;;;;;5176066;27;20202;-51
2022/03/11 11:12:11;;;;;;;11.53;8.83;;;8.40;81.90;;;;;;5172365;27;20205;-51
2022/03/11 11:14:39;;;;;;;12.90;9.17;;;8.50;79.20;;;;;;5154757;27;20226;-51
2022/03/11 11:17:09;;;;;;;12.07;8.37;;;8.50;79.60;;;;;;5155082;27;20333;-51
2022/03/11 11:19:44;;;;;;;11.40;8.70;;;8.50;78.20;;;;;;5154733;27;20301;-51
2022/03/11 11:22:12;;;;;;;13.97;8.97;;;8.60;79.30;;;;;;5154611;27;20218;-51
2022/03/11 11:24:43;;;;;;;13.17;8.73;;;8.70;77.60;;;;;;5154347;27;20271;-51
2022/03/11 11:27:14;;;;;;;13.73;8.80;;;8.60;77.30;;;;;;5154855;27;20206;-51
2022/03/11 11:29:43;;;;;;;12.47;8.70;;;8.70;77.00;;;;;;5154466;27;20556;-51
2022/03/11 11:32:11;;;;;;;10.10;8.23;;;8.70;75.20;;;;;;5154674;27;20554;-51
2022/03/11 11:34:39;;;;;;;11.73;9.33;;;8.80;76.70;;;;;;5154007;27;20275;-51
2022/03/11 11:37:37;;;;;;;12.30;9.23;;;8.90;77.70;;;;;;5154070;27;20208;-51
2022/03/11 11:40:30;;;;;;;10.57;8.43;;;9.00;78.20;;;;;;5154659;27;20245;-51
2022/03/11 11:43:26;;;;;;;12.60;8.63;;;9.00;77.80;;;;;;5153305;27;20278;-52
2022/03/11 11:45:56;;;;;;;14.20;8.90;;;9.10;77.50;;;;;;5154751;27;20222;-51
2022/03/11 11:49:03;;;;;;;10.27;8.10;;;9.20;80.20;;;;;;5154368;27;20220;-50
2022/03/11 11:52:02;;;;;;;12.57;8.03;;;9.40;75.60;;;;;;5173610;27;20201;-51
2022/03/11 11:54:35;;;;;;;10.83;7.70;;;9.40;75.30;;;;;;5128511;27;20201;-51
2022/03/11 11:57:05;;;;;;;10.13;7.83;;;9.40;77.00;;;;;;5175797;27;20195;-50
2022/03/11 11:59:37;;;;;;;10.20;7.80;;;9.50;75.30;;;;;;5173742;27;20228;-50
2022/03/11 12:02:25;;;;;;;9.80;7.40;;;9.60;73.90;;;;;;5162380;27;20218;-51
2022/03/11 12:04:53;;;;;;;11.97;7.60;;;9.80;70.50;;;;;;5153213;27;20336;-52
2022/03/11 12:07:23;;;;;;;9.97;7.57;;;9.80;71.20;;;;;;5153946;27;20206;-52
2022/03/11 12:09:54;;;;;;;9.60;7.60;;;9.70;72.70;;;;;;5164951;27;20214;-51
2022/03/11 12:13:02;;;;;;;10.57;8.03;;;9.80;71.70;;;;;;5152954;27;20243;-51
2022/03/11 12:15:38;;;;;;;10.27;7.73;;;9.90;69.20;;;;;;5154303;27;20221;-51
2022/03/11 12:18:22;;;;;;;10.23;7.77;;;9.80;72.70;;;;;;5154023;27;20201;-51
2022/03/11 12:20:50;;;;;;;10.20;7.70;;;9.90;73.30;;;;;;5152116;27;20230;-51
2022/03/11 12:23:20;;;;;;;10.93;7.23;;;9.90;70.50;;;;;;5158696;27;20225;-52
2022/03/11 12:25:54;;;;;;;10.53;7.47;;;9.90;68.80;;;;;;5168882;27;20222;-51
2022/03/11 12:28:30;;;;;;;10.80;7.13;;;10.10;66.40;;;;;;5153024;27;20210;-51
2022/03/11 12:31:09;;;;;;;8.97;7.40;;;10.10;67.20;;;;;;5154001;27;20248;-51
2022/03/11 12:33:39;;;;;;;11.93;7.03;;;10.10;67.10;;;;;;5152596;27;20301;-51
2022/03/11 12:36:09;;;;;;;10.60;7.00;;;10.10;66.00;;;;;;5153988;27;20226;-51
2022/03/11 12:38:39;;;;;;;9.87;6.80;;;10.20;66.50;;;;;;5153803;27;20628;-50
2022/03/11 12:41:09;;;;;;;9.03;7.17;;;10.10;68.90;;;;;;5153555;27;20216;-51
2022/03/11 12:43:37;;;;;;;10.03;7.67;;;10.20;67.50;;;;;;5152596;27;20732;-51
2022/03/11 12:46:08;;;;;;;10.10;6.97;;;10.20;70.20;;;;;;5153693;27;20234;-51
2022/03/11 12:48:38;;;;;;;9.80;7.57;;;10.30;69.50;;;;;;5153895;27;20646;-51
2022/03/11 12:51:08;;;;;;;8.87;7.10;;;10.30;69.80;;;;;;5173730;27;20249;-52